Hamburg, Arkansas
Current Conditions -  °F | °C
As of 3:53 PM on Monday 24 Nov 2014 (Local Time) from KLLQ Reporting Station
Clear Clear  
Wind Chill: 57°   Ceiling: Unl
Heat Index: 57°   Visibility: 10mi
Dew Point: 30°   Wind: 8mph
Humidity: 36%   Direction: 280°W
Pressure: 29.98"   Gusts: NA
Location:  33.23°N, 91.8°W
Report Text: KLLQ 242153Z AUTO 28007KT 10SM CLR 14/M01 A2998 RMK AO2 SLP150 T01391011
Loading
Personal Weather Stations






























Interactive Weather Map New forecast layout! Learn more

10-Day Weather Forecast

Advertisements
Track Severe Weather on mobile